Time;durP1;ratioP1;P1;durP2;ratioP2;P2;SDS_P1;SDS_P2;PMS_P1;PMS_P2;Temp;Humidity;BMP_temperature;BMP_pressure;BME280_temperature;BME280_humidity;BME280_pressure;Samples;Min_cycle;Max_cycle;Signal;HPM_P1;HPM_P2
2022/04/22 04:35:13;;;;;;;;;;;;;;;7.76;100.00;96880.31;4862386;29;19952;-72
2022/04/22 04:37:41;;;;;;;;;;;;;;;7.76;100.00;96883.09;4864216;29;19978;-72
2022/04/22 04:40:09;;;;;;;;;;;;;;;7.77;100.00;96879.91;4864291;29;19951;-74
2022/04/22 04:42:36;;;;;;;;;;;;;;;7.79;100.00;96877.50;4864637;29;19947;-72
2022/04/22 04:45:04;;;;;;;;;;;;;;;7.83;100.00;96886.59;4858879;29;19959;-72
2022/04/22 04:47:38;;;;;;;;;;;;;;;7.84;100.00;96882.59;4863817;29;19960;-72
2022/04/22 04:50:06;;;;;;;;;;;;;;;7.85;100.00;96877.81;4866243;29;19953;-72
2022/04/22 04:52:34;;;;;;;;;;;;;;;7.88;100.00;96882.56;4850741;29;19963;-72
2022/04/22 04:55:02;;;;;;;;;;;;;;;7.84;100.00;96879.81;4865991;29;19950;-72
2022/04/22 04:57:30;;;;;;;;;;;;;;;7.83;100.00;96880.22;4866639;29;19967;-72
2022/04/22 04:59:57;;;;;;;;;;;;;;;7.83;100.00;96880.22;4866237;29;19950;-72
2022/04/22 05:02:25;;;;;;;;;;;;;;;7.86;100.00;96874.63;4866605;29;19957;-72
2022/04/22 05:04:52;;;;;;;;;;;;;;;7.87;100.00;96878.97;4864491;29;19953;-73
2022/04/22 05:07:20;;;;;;;;;;;;;;;7.91;100.00;96878.94;4866177;29;19961;-72
2022/04/22 05:09:47;;;;;;;;;;;;;;;7.93;100.00;96874.53;4867374;29;19951;-72
2022/04/22 05:12:15;;;;;;;;;;;;;;;7.93;100.00;96880.13;4867641;29;19954;-72
2022/04/22 05:14:46;;;;;;;;;;;;;;;7.95;100.00;96880.47;4867193;29;19959;-72
2022/04/22 05:17:13;;;;;;;;;;;;;;;7.95;100.00;96874.13;4857627;29;19972;-72
2022/04/22 05:19:40;;;;;;;;;;;;;;;7.97;100.00;96880.09;4856162;29;19950;-72
2022/04/22 05:22:07;;;;;;;;;;;;;;;7.97;100.00;96873.72;4866437;29;19950;-72
2022/04/22 05:24:35;;;;;;;;;;;;;;;7.97;100.00;96882.88;4866325;29;19954;-72
2022/04/22 05:27:03;;;;;;;;;;;;;;;7.99;100.00;96877.66;4866904;29;19952;-72
2022/04/22 05:35:03;;;;;;;;;;;;;;;8.01;100.00;96871.69;4866972;29;20366;-72
2022/04/22 05:37:43;;;;;;;;;;;;;;;8.01;100.00;96868.91;4866560;29;19972;-72
2022/04/22 05:40:11;;;;;;;;;;;;;;;8.00;100.00;96879.22;4866661;29;19958;-72
2022/04/22 05:42:38;;;;;;;;;;;;;;;8.03;100.00;96874.81;4867082;29;20329;-72
2022/04/22 05:45:06;;;;;;;;;;;;;;;8.05;100.00;96872.41;4864521;29;19950;-72
2022/04/22 05:47:34;;;;;;;;;;;;;;;8.07;100.00;96870.03;4866634;29;19951;-72
2022/04/22 05:50:04;;;;;;;;;;;;;;;8.04;100.00;96880.00;4866104;29;20252;-72
2022/04/22 05:52:31;;;;;;;;;;;;;;;8.06;100.00;96872.00;4865817;29;19950;-72
2022/04/22 05:55:02;;;;;;;;;;;;;;;8.05;100.00;96867.63;4866529;29;20246;-72
2022/04/22 05:57:32;;;;;;;;;;;;;;;8.06;100.00;96866.44;4860251;29;19966;-72
2022/04/22 06:00:00;;;;;;;;;;;;;;;8.09;100.00;96868.41;4866056;29;19953;-72
2022/04/22 06:02:41;;;;;;;;;;;;;;;8.12;100.00;96869.56;4862390;29;19951;-72
2022/04/22 06:05:09;;;;;;;;;;;;;;;8.11;100.00;96862.41;4865923;29;20228;-72
2022/04/22 06:07:38;;;;;;;;;;;;;;;8.13;100.00;96865.56;4865014;29;20349;-72
2022/04/22 06:12:51;;;;;;;;;;;;;;;8.14;100.00;96870.72;4865059;29;19958;-72
2022/04/22 06:15:19;;;;;;;;;;;;;;;8.13;100.00;96858.00;4862620;29;19958;-72
2022/04/22 06:17:46;;;;;;;;;;;;;;;8.15;100.00;96863.16;4864695;29;20251;-72
2022/04/22 06:20:14;;;;;;;;;;;;;;;8.13;100.00;96862.78;4864143;29;19965;-72
2022/04/22 06:22:41;;;;;;;;;;;;;;;8.16;100.00;96864.75;4864319;29;19950;-72
2022/04/22 06:25:10;;;;;;;;;;;;;;;8.15;100.00;96863.16;4862828;29;20198;-72
2022/04/22 06:27:38;;;;;;;;;;;;;;;8.13;100.00;96860.78;4864480;29;19963;-72
2022/04/22 06:30:07;;;;;;;;;;;;;;;8.11;100.00;96868.78;4865297;29;19950;-72
2022/04/22 06:32:35;;;;;;;;;;;;;;;8.10;100.00;96866.38;4864166;29;19956;-72
2022/04/22 06:35:03;;;;;;;;;;;;;;;8.08;100.00;96875.16;4853629;29;19962;-72
2022/04/22 06:37:35;;;;;;;;;;;;;;;8.09;100.00;96868.41;4865105;29;19966;-72
2022/04/22 06:45:55;;;;;;;;;;;;;;;8.12;100.00;96866.78;4786522;30;19957;-72
2022/04/22 06:48:30;;;;;;;;;;;;;;;8.13;100.00;96868.34;4817338;29;19951;-72
2022/04/22 06:51:15;;;;;;;;;;;;;;;8.14;100.00;96870.72;4859935;29;20290;-72
2022/04/22 06:53:42;;;;;;;;;;;;;;;8.16;100.00;96876.66;4864209;29;19965;-72
2022/04/22 06:56:13;;;;;;;;;;;;;;;8.15;100.00;96875.06;4864045;29;19958;-72
2022/04/22 06:58:41;;;;;;;;;;;;;;;8.17;100.00;96866.31;4863693;29;19968;-72
2022/04/22 07:01:09;;;;;;;;;;;;;;;8.19;100.00;96875.81;4860659;29;20037;-72
2022/04/22 07:03:57;;;;;;;;;;;;;;;8.18;100.00;96873.47;4860971;29;20271;-72
2022/04/22 07:06:25;;;;;;;;;;;;;;;8.17;100.00;96869.09;4863858;29;20361;-73
2022/04/22 07:08:52;;;;;;;;;;;;;;;8.18;100.00;96874.25;4863789;29;20251;-72
2022/04/22 07:11:27;;;;;;;;;;;;;;;8.19;100.00;96877.84;4864183;29;19960;-72
2022/04/22 07:13:56;;;;;;;;;;;;;;;8.15;100.00;96871.50;4864063;29;19962;-72
2022/04/22 07:16:23;;;;;;;;;;;;;;;8.17;100.00;96877.44;4864058;29;19953;-72
2022/04/22 07:18:53;;;;;;;;;;;;;;;8.20;100.00;96882.97;4863537;29;19981;-72
2022/04/22 07:21:21;;;;;;;;;;;;;;;8.21;100.00;96881.78;4863671;29;19958;-72
2022/04/22 07:23:48;;;;;;;;;;;;;;;8.16;100.00;96881.44;4864590;29;19958;-72
2022/04/22 07:26:17;;;;;;;;;;;;;;;8.15;100.00;96877.88;4863638;29;19960;-73
2022/04/22 07:28:49;;;;;;;;;;;;;;;8.17;100.00;96886.59;4864042;29;20257;-72
2022/04/22 07:31:18;;;;;;;;;;;;;;;8.19;100.00;96886.19;4864287;29;19951;-73
2022/04/22 07:33:46;;;;;;;;;;;;;;;8.21;100.00;96881.78;4864455;29;19975;-72
2022/04/22 07:36:13;;;;;;;;;;;;;;;8.22;100.00;96879.75;4864404;29;19951;-72
2022/04/22 07:38:41;;;;;;;;;;;;;;;8.25;100.00;96881.72;4863088;29;19976;-72
2022/04/22 07:41:09;;;;;;;;;;;;;;;8.29;100.00;96885.31;4864098;29;19982;-72
2022/04/22 07:49:11;;;;;;;;;;;;;;;8.44;100.00;96886.66;4863519;29;19951;-72
2022/04/22 07:51:39;;;;;;;;;;;;;;;8.47;100.00;96883.06;4863622;29;20256;-72
2022/04/22 07:54:12;;;;;;;;;;;;;;;8.50;100.00;96880.25;4863447;29;19959;-72
2022/04/22 07:56:41;;;;;;;;;;;;;;;8.53;100.00;96886.97;4862711;29;20346;-72
2022/04/22 07:59:09;;;;;;;;;;;;;;;8.58;100.00;96890.06;4846015;29;20271;-72
2022/04/22 08:01:36;;;;;;;;;;;;;;;8.63;100.00;96888.81;4844822;29;19960;-72
2022/04/22 08:04:04;;;;;;;;;;;;;;;8.66;100.00;96887.16;4845655;29;19952;-72
2022/04/22 08:06:31;;;;;;;;;;;;;;;8.67;100.00;96888.75;4860910;29;19954;-72
2022/04/22 08:08:58;;;;;;;;;;;;;;;8.68;100.00;96884.78;4863865;29;19950;-72
2022/04/22 08:11:26;;;;;;;;;;;;;;;8.73;100.00;96887.09;4862888;29;19951;-72
2022/04/22 08:13:55;;;;;;;;;;;;;;;8.75;100.00;96885.47;4863362;29;19951;-72
2022/04/22 08:16:23;;;;;;;;;;;;;;;8.78;100.00;96884.59;4864200;29;19962;-72
2022/04/22 08:18:50;;;;;;;;;;;;;;;8.80;100.00;96887.00;4864423;29;19970;-72
2022/04/22 08:21:17;;;;;;;;;;;;;;;8.82;100.00;96877.00;4863488;29;19957;-72
2022/04/22 08:23:46;;;;;;;;;;;;;;;8.84;100.00;96876.56;4864209;29;19950;-72
2022/04/22 08:26:14;;;;;;;;;;;;;;;8.84;100.00;96873.78;4866022;29;19960;-72
2022/04/22 08:28:41;;;;;;;;;;;;;;;8.87;100.00;96875.72;4865362;29;19965;-72
2022/04/22 08:31:08;;;;;;;;;;;;;;;8.90;100.00;96875.66;4867203;29;19979;-73
2022/04/22 08:33:36;;;;;;;;;;;;;;;8.94;100.00;96883.97;4866814;29;19971;-72
2022/04/22 08:36:03;;;;;;;;;;;;;;;8.92;100.00;96878.03;4875832;29;20363;-72
2022/04/22 08:38:30;;;;;;;;;;;;;;;8.96;100.00;96879.56;4866417;29;19965;-72
2022/04/22 08:40:58;;;;;;;;;;;;;;;8.95;100.00;96877.22;4868338;29;19981;-72
2022/04/22 08:43:26;;;;;;;;;;;;;;;8.99;100.00;96877.94;4883673;29;19962;-72
2022/04/22 08:45:53;;;;;;;;;;;;;;;8.99;100.00;96883.50;4874144;29;19967;-72
2022/04/22 08:51:22;;;;;;;;;;;;;;;8.99;100.00;96883.50;4823563;29;19954;-72
2022/04/22 08:53:52;;;;;;;;;;;;;;;8.98;100.00;96893.06;4853012;29;19954;-72
2022/04/22 08:56:20;;;;;;;;;;;;;;;8.96;100.00;96885.13;4862392;29;19959;-72
2022/04/22 08:58:47;;;;;;;;;;;;;;;8.98;100.00;96879.94;4874708;29;19977;-72
2022/04/22 09:01:14;;;;;;;;;;;;;;;9.04;100.00;96881.03;4874474;29;19956;-72
2022/04/22 09:03:41;;;;;;;;;;;;;;;9.07;100.00;96885.75;4871709;29;20064;-72
2022/04/22 09:06:09;;;;;;;;;;;;;;;9.09;100.00;96888.13;4866615;29;19952;-72
2022/04/22 09:08:37;;;;;;;;;;;;;;;9.11;100.00;96886.50;4866321;29;19952;-72
2022/04/22 09:11:05;;;;;;;;;;;;;;;9.13;100.00;96891.66;4864383;29;19953;-72
2022/04/22 09:13:32;;;;;;;;;;;;;;;9.17;100.00;96890.38;4866316;29;19955;-72
2022/04/22 09:16:00;;;;;;;;;;;;;;;9.17;100.00;96895.94;4866389;29;19954;-72
2022/04/22 09:18:37;;;;;;;;;;;;;;;9.23;100.00;96890.69;4867716;29;19954;-72
2022/04/22 09:21:06;;;;;;;;;;;;;;;9.27;100.00;96895.00;4872017;29;19953;-72
2022/04/22 09:23:35;;;;;;;;;;;;;;;9.30;100.00;96898.94;4867902;29;19953;-72
2022/04/22 09:26:03;;;;;;;;;;;;;;;9.35;100.00;96894.88;4866287;29;20359;-72
2022/04/22 09:28:30;;;;;;;;;;;;;;;9.42;100.00;96895.53;4865360;29;20217;-72
2022/04/22 09:31:02;;;;;;;;;;;;;;;9.45;100.00;96899.50;4866051;29;19956;-72
2022/04/22 09:33:58;;;;;;;;;;;;;;;9.47;100.00;96902.63;4866139;29;19971;-72
2022/04/22 09:44:58;;;;;;;;;;;;;;;9.67;100.00;96904.28;4866110;29;20239;-72
2022/04/22 09:47:27;;;;;;;;;;;;;;;9.69;100.00;96910.22;4865846;29;20534;-72
2022/04/22 09:49:55;;;;;;;;;;;;;;;9.73;100.00;96910.94;4865939;29;19966;-72
2022/04/22 09:52:26;;;;;;;;;;;;;;;9.72;100.00;96916.97;4865377;29;19983;-72
2022/04/22 09:54:57;;;;;;;;;;;;;;;9.72;100.00;96914.97;4863518;29;20353;-73
2022/04/22 09:57:58;;;;;;;;;;;;;;;9.77;100.00;96908.91;4865052;29;19949;-72
2022/04/22 10:00:26;;;;;;;;;;;;;;;9.80;100.00;96907.25;4862821;29;19974;-72
2022/04/22 10:02:54;;;;;;;;;;;;;;;9.82;100.00;96907.63;4864937;29;19959;-72
2022/04/22 10:05:26;;;;;;;;;;;;;;;9.87;100.00;96913.50;4865482;29;19955;-72
2022/04/22 10:07:55;;;;;;;;;;;;;;;9.90;100.00;96909.06;4864704;29;19948;-72
2022/04/22 10:10:26;;;;;;;;;;;;;;;9.97;100.00;96919.31;4864533;29;19953;-72
2022/04/22 10:12:55;;;;;;;;;;;;;;;10.02;100.00;96916.81;4864362;29;19966;-72
2022/04/22 10:15:25;;;;;;;;;;;;;;;10.08;100.00;96919.88;4863841;29;20352;-72
2022/04/22 10:17:52;;;;;;;;;;;;;;;10.16;100.00;96922.16;4858361;29;19959;-73
2022/04/22 10:20:20;;;;;;;;;;;;;;;10.25;100.00;96925.16;4853609;29;19976;-72
2022/04/22 10:22:50;;;;;;;;;;;;;;;10.31;100.00;96926.25;4862622;29;19950;-72
2022/04/22 10:25:17;;;;;;;;;;;;;;;10.37;100.00;96926.53;4864245;29;19958;-72
2022/04/22 10:27:46;;;;;;;;;;;;;;;10.45;100.00;96934.34;4860965;29;20339;-72
2022/04/22 10:30:14;;;;;;;;;;;;;;;10.49;100.00;96929.47;4864130;29;19959;-72
2022/04/22 10:32:43;;;;;;;;;;;;;;;10.55;100.00;96936.13;4872176;29;19948;-72
2022/04/22 10:35:12;;;;;;;;;;;;;;;10.60;100.00;96929.25;4862534;29;19950;-72
2022/04/22 10:37:41;;;;;;;;;;;;;;;10.60;100.00;96937.63;4862120;29;19959;-72
2022/04/22 10:40:19;;;;;;;;;;;;;;;10.71;100.00;96940.22;4864060;29;19969;-72
2022/04/22 10:42:47;;;;;;;;;;;;;;;10.71;100.00;96931.84;4862959;29;19950;-72
2022/04/22 10:48:00;;;;;;;;;;;;;;;10.86;100.00;96938.66;4863582;29;19954;-72
2022/04/22 10:50:28;;;;;;;;;;;;;;;11.00;100.00;96930.75;4863893;29;19961;-72
2022/04/22 10:53:04;;;;;;;;;;;;;;;11.08;100.00;96940.56;4849645;29;19951;-72
2022/04/22 10:55:41;;;;;;;;;;;;;;;11.16;100.00;96942.00;4846795;29;20252;-72
2022/04/22 10:58:30;;;;;;;;;;;;;;;11.27;100.00;96943.75;4847430;29;20364;-72
2022/04/22 11:00:57;;;;;;;;;;;;;;;11.23;100.00;96952.22;4864262;29;19981;-72
2022/04/22 11:03:27;;;;;;;;;;;;;;;11.21;100.00;96943.47;4862010;29;19950;-72
2022/04/22 11:05:54;;;;;;;;;;;;;;;11.21;100.00;96944.28;4862733;29;20335;-72
2022/04/22 11:08:24;;;;;;;;;;;;;;;11.16;100.00;96950.38;4862330;29;19960;-72
2022/04/22 11:10:52;;;;;;;;;;;;;;;11.03;100.00;96952.28;4862269;29;19952;-72
2022/04/22 11:13:34;;;;;;;;;;;;;;;11.08;100.00;96960.16;4870210;29;20237;-72
2022/04/22 11:16:06;;;;;;;;;;;;;;;11.02;100.00;96952.72;4866742;29;20334;-72
2022/04/22 11:18:34;;;;;;;;;;;;;;;11.07;100.00;96946.63;4879412;29;19955;-72
2022/04/22 11:21:02;;;;;;;;;;;;;;;11.14;100.00;96958.44;4865916;29;19971;-72
2022/04/22 11:23:36;;;;;;;;;;;;;;;11.07;100.00;96960.59;4859609;29;20353;-72
2022/04/22 11:26:04;;;;;;;;;;;;;;;11.05;100.00;96960.25;4864460;29;19956;-72
2022/04/22 11:28:38;;;;;;;;;;;;;;;11.11;100.00;96966.91;4863920;29;19958;-72
2022/04/22 11:31:07;;;;;;;;;;;;;;;11.15;100.00;96964.81;4864142;29;20222;-72
2022/04/22 11:33:43;;;;;;;;;;;;;;;11.25;100.00;96963.00;4861244;29;19969;-72
2022/04/22 11:36:10;;;;;;;;;;;;;;;11.25;100.00;96965.81;4863192;29;20246;-72
2022/04/22 11:38:54;;;;;;;;;;;;;;;11.32;100.00;96965.63;4863507;29;20261;-72
2022/04/22 11:41:22;;;;;;;;;;;;;;;10.88;100.00;96964.97;4861877;29;20389;-72
2022/04/22 11:43:49;;;;;;;;;;;;;;;11.05;100.00;96963.81;4860460;29;20235;-72
2022/04/22 11:46:17;;;;;;;;;;;;;;;11.12;100.00;96971.28;4863587;29;19957;-71
2022/04/22 11:48:53;;;;;;;;;;;;;;;11.16;100.00;96972.78;4861970;29;20330;-72
2022/04/22 11:51:20;;;;;;;;;;;;;;;11.22;100.00;96976.63;4860659;29;19959;-72
2022/04/22 11:53:52;;;;;;;;;;;;;;;11.31;100.00;96972.44;4863375;29;19952;-72
2022/04/22 11:56:20;;;;;;;;;;;;;;;11.32;100.00;96979.63;4860882;29;19975;-72
2022/04/22 11:58:54;;;;;;;;;;;;;;;11.26;100.00;96978.56;4858279;29;19955;-72
2022/04/22 12:06:58;;;;;;;;;;;;;;;11.32;100.00;96980.38;4855160;29;19957;-72
2022/04/22 12:09:25;;;;;;;;;;;;;;;11.26;100.00;96978.56;4863109;29;19951;-72
2022/04/22 12:11:52;;;;;;;;;;;;;;;11.16;100.00;96988.75;4861141;29;19953;-72
2022/04/22 12:14:27;;;;;;;;;;;;;;;11.31;100.00;96992.03;4862455;29;19951;-72
2022/04/22 12:16:58;;;;;;;;;;;;;;;11.37;100.00;96995.91;4861234;29;19966;-72
2022/04/22 12:19:28;;;;;;;;;;;;;;;11.56;100.00;96995.84;4862145;29;19951;-72
2022/04/22 12:21:56;;;;;;;;;;;;;;;11.54;100.00;96986.31;4867977;29;19967;-72
2022/04/22 12:24:23;;;;;;;;;;;;;;;11.71;100.00;96993.53;4855154;29;20249;-72
2022/04/22 12:26:51;;;;;;;;;;;;;;;11.74;100.00;96998.22;4862670;29;19951;-72
2022/04/22 12:29:20;;;;;;;;;;;;;;;11.80;100.00;96999.28;4863833;29;20416;-72
2022/04/22 12:31:53;;;;;;;;;;;;;;;11.87;100.00;96999.13;4858801;29;19962;-73
2022/04/22 12:34:35;;;;;;;;;;;;;;;11.83;100.00;97009.63;4860528;29;20054;-72
2022/04/22 12:37:03;;;;;;;;;;;;;;;12.03;100.00;97006.75;4860810;29;19951;-72
2022/04/22 12:39:41;;;;;;;;;;;;;;;12.00;100.00;97010.41;4860957;29;19959;-73
2022/04/22 12:42:15;;;;;;;;;;;;;;;12.16;100.00;97016.00;4852429;29;19970;-71
2022/04/22 12:52:07;;;;;;;;;;;;;;;12.11;100.00;97020.13;4860446;29;19958;-71
2022/04/22 12:53:24;;;;;;;;;;;;;;;11.96;100.00;97029.34;4855409;29;19953;-72
2022/04/22 12:55:59;;;;;;;;;;;;;;;11.80;100.00;97024.50;4859645;29;19956;-72
2022/04/22 12:58:26;;;;;;;;;;;;;;;11.84;100.00;97028.00;4863120;29;20215;-72
2022/04/22 13:00:53;;;;;;;;;;;;;;;11.74;100.00;97034.63;4860742;29;19974;-72
2022/04/22 13:03:21;;;;;;;;;;;;;;;11.61;100.00;97031.72;4863871;29;20346;-72
2022/04/22 13:05:49;;;;;;;;;;;;;;;11.49;100.00;97037.22;4861696;29;19958;-72
2022/04/22 13:08:17;;;;;;;;;;;;;;;11.57;100.00;97042.19;4860799;29;19968;-78
2022/04/22 13:10:47;;;;;;;;;;;;;;;11.43;100.00;97033.34;4863677;29;19960;-73
2022/04/22 13:13:16;;;;;;;;;;;;;;;11.51;100.00;97034.75;4863673;29;19950;-72
2022/04/22 13:15:43;;;;;;;;;;;;;;;11.36;100.00;97033.50;4867021;29;20363;-73
2022/04/22 13:18:11;;;;;;;;;;;;;;;11.46;100.00;97030.47;4865672;29;20323;-73
2022/04/22 13:20:38;;;;;;;;;;;;;;;11.47;100.00;97037.63;4864013;29;19965;-72
2022/04/22 13:23:07;;;;;;;;;;;;;;;11.57;100.00;97030.22;4865265;29;19973;-73
2022/04/22 13:25:34;;;;;;;;;;;;;;;11.61;100.00;97030.94;4866086;29;19956;-73
2022/04/22 13:28:02;;;;;;;;;;;;;;;11.52;100.00;97034.31;4873738;29;19957;-73
2022/04/22 13:30:30;;;;;;;;;;;;;;;11.50;100.00;97024.78;4866430;29;20239;-73
2022/04/22 13:32:57;;;;;;;;;;;;;;;11.64;100.00;97030.06;4865433;29;19983;-73
2022/04/22 13:35:24;;;;;;;;;;;;;;;11.58;100.00;97032.59;4849107;29;20251;-73
2022/04/22 13:37:51;;;;;;;;;;;;;;;11.62;100.00;97032.50;4862862;29;19952;-73
2022/04/22 13:40:19;;;;;;;;;;;;;;;11.70;100.00;97028.34;4865868;29;19955;-73
2022/04/22 13:42:48;;;;;;;;;;;;;;;11.72;100.00;97032.28;4866039;29;19955;-73
2022/04/22 13:53:33;;;;;;;;;;;;;;;11.89;100.00;97047.09;4847632;29;20252;-72
2022/04/22 13:56:00;;;;;;;;;;;;;;;11.92;100.00;97053.81;4864233;29;19963;-73
2022/04/22 13:58:28;;;;;;;;;;;;;;;11.84;100.00;97040.00;4866226;29;19956;-73
2022/04/22 14:00:55;;;;;;;;;;;;;;;11.91;100.00;97044.63;4865930;29;19969;-73
2022/04/22 14:03:23;;;;;;;;;;;;;;;11.90;100.00;97045.06;4864031;29;20363;-73
2022/04/22 14:05:50;;;;;;;;;;;;;;;11.91;100.00;97047.44;4865522;29;19956;-73
2022/04/22 14:08:18;;;;;;;;;;;;;;;11.93;100.00;97049.81;4865194;29;19957;-73
2022/04/22 14:10:46;;;;;;;;;;;;;;;11.95;100.00;97047.34;4865466;29;20246;-73
2022/04/22 14:13:14;;;;;;;;;;;;;;;11.98;100.00;97049.28;4864862;29;19949;-73
2022/04/22 14:15:42;;;;;;;;;;;;;;;11.99;100.00;97048.84;4863435;29;20253;-73
2022/04/22 14:18:09;;;;;;;;;;;;;;;12.01;100.00;97046.38;4862611;29;19955;-73
2022/04/22 14:20:37;;;;;;;;;;;;;;;11.96;100.00;97046.16;4860965;29;19957;-73
2022/04/22 14:23:04;;;;;;;;;;;;;;;12.00;100.00;97041.22;4864229;29;19953;-73
2022/04/22 14:25:31;;;;;;;;;;;;;;;11.94;100.00;97048.56;4864179;29;19957;-73
2022/04/22 14:27:59;;;;;;;;;;;;;;;11.92;100.00;97046.22;4864829;29;20354;-73
2022/04/22 14:30:26;;;;;;;;;;;;;;;11.93;100.00;97047.81;4847841;29;19969;-72
2022/04/22 14:32:54;;;;;;;;;;;;;;;11.98;100.00;97040.88;4864611;29;20375;-73
2022/04/22 14:35:23;;;;;;;;;;;;;;;12.05;100.00;97044.31;4863954;29;19958;-73
2022/04/22 14:37:50;;;;;;;;;;;;;;;12.01;100.00;97043.59;4864377;29;20251;-73
2022/04/22 14:40:17;;;;;;;;;;;;;;;12.02;100.00;97042.38;4864324;29;19951;-73
2022/04/22 14:42:45;;;;;;;;;;;;;;;12.00;100.00;97044.03;4863556;29;19998;-73
2022/04/22 14:45:13;;;;;;;;;;;;;;;12.08;100.00;97045.44;4864084;29;19950;-73
2022/04/22 14:47:42;;;;;;;;;;;;;;;12.09;100.00;97044.19;4861894;29;19950;-73
2022/04/22 14:50:09;;;;;;;;;;;;;;;12.01;100.00;97049.19;4863942;29;20353;-73
2022/04/22 14:52:37;;;;;;;;;;;;;;;12.03;100.00;97041.13;4863824;29;19951;-73
2022/04/22 14:55:04;;;;;;;;;;;;;;;12.06;100.00;97040.25;4864424;29;19958;-72
2022/04/22 14:57:31;;;;;;;;;;;;;;;12.08;100.00;97040.59;4862726;29;19948;-73
2022/04/22 14:59:59;;;;;;;;;;;;;;;12.08;100.00;97046.22;4863604;29;19956;-73
2022/04/22 15:02:26;;;;;;;;;;;;;;;12.04;100.00;97039.91;4863115;29;19966;-73
2022/04/22 15:04:54;;;;;;;;;;;;;;;12.18;100.00;97045.16;4863846;29;19957;-73
2022/04/22 15:07:22;;;;;;;;;;;;;;;12.14;100.00;97040.88;4865410;29;19980;-72
2022/04/22 15:09:50;;;;;;;;;;;;;;;12.14;100.00;97055.69;4863660;29;19951;-73
2022/04/22 15:12:18;;;;;;;;;;;;;;;12.19;100.00;97045.94;4863519;29;20263;-73
2022/04/22 15:14:45;;;;;;;;;;;;;;;12.22;100.00;97045.88;4863205;29;19951;-73
2022/04/22 15:17:13;;;;;;;;;;;;;;;12.25;100.00;97050.56;4861250;29;19955;-73
2022/04/22 15:25:12;;;;;;;;;;;;;;;12.29;100.00;97054.09;4861318;29;20253;-73
2022/04/22 15:27:41;;;;;;;;;;;;;;;12.25;100.00;97049.81;4861466;29;19958;-74
2022/04/22 15:30:08;;;;;;;;;;;;;;;12.30;100.00;97057.69;4863171;29;20233;-74
2022/04/22 15:32:36;;;;;;;;;;;;;;;12.28;100.00;97055.31;4863439;29;19953;-73
2022/04/22 15:35:03;;;;;;;;;;;;;;;12.35;100.00;97057.13;4863213;29;19953;-73
2022/04/22 15:37:31;;;;;;;;;;;;;;;12.31;100.00;97056.44;4862485;29;19957;-73
2022/04/22 15:39:58;;;;;;;;;;;;;;;12.39;100.00;97057.84;4863525;29;19958;-73
2022/04/22 15:42:25;;;;;;;;;;;;;;;12.34;100.00;97052.78;4863071;29;20244;-73
2022/04/22 15:44:55;;;;;;;;;;;;;;;12.39;100.00;97061.44;4862459;29;19959;-73
2022/04/22 15:47:22;;;;;;;;;;;;;;;12.39;100.00;97061.44;4862212;29;19955;-74
2022/04/22 15:49:49;;;;;;;;;;;;;;;12.36;100.00;97067.94;4857538;29;19964;-73
2022/04/22 15:52:16;;;;;;;;;;;;;;;12.38;100.00;97065.47;4860457;29;20364;-73
2022/04/22 15:54:44;;;;;;;;;;;;;;;12.31;100.00;97067.66;4856605;29;19953;-72
2022/04/22 15:57:11;;;;;;;;;;;;;;;12.37;100.00;97071.53;4860539;29;19984;-72
2022/04/22 15:59:38;;;;;;;;;;;;;;;12.39;100.00;97078.28;4860724;29;20254;-72
2022/04/22 16:02:07;;;;;;;;;;;;;;;12.35;100.00;97077.56;4858944;29;19972;-73
2022/04/22 16:04:35;;;;;;;;;;;;;;;12.31;100.00;97085.28;4856230;29;19954;-72
2022/04/22 16:07:03;;;;;;;;;;;;;;;12.35;100.00;97085.16;4863421;29;19956;-73
2022/04/22 16:09:30;;;;;;;;;;;;;;;12.27;100.00;97084.59;4863072;29;19954;-73
2022/04/22 16:17:29;;;;;;;;;;;;;;;12.30;100.00;97086.50;4863294;29;19958;-73
2022/04/22 16:19:56;;;;;;;;;;;;;;;12.32;100.00;97084.03;4853445;29;19961;-73
2022/04/22 16:22:24;;;;;;;;;;;;;;;12.34;100.00;97080.81;4844614;29;19977;-73
2022/04/22 16:24:51;;;;;;;;;;;;;;;12.35;100.00;97085.97;4845572;29;19982;-73
2022/04/22 16:27:19;;;;;;;;;;;;;;;12.31;100.00;97076.88;4859740;29;19954;-73
2022/04/22 16:29:48;;;;;;;;;;;;;;;12.27;100.00;97069.78;4863570;29;19947;-72
2022/04/22 16:32:15;;;;;;;;;;;;;;;12.23;100.00;97066.25;4863352;29;20338;-73
2022/04/22 16:34:43;;;;;;;;;;;;;;;12.17;100.00;97074.44;4862050;29;19971;-73
2022/04/22 16:37:10;;;;;;;;;;;;;;;12.14;100.00;97082.91;4862471;29;20335;-72
2022/04/22 16:39:37;;;;;;;;;;;;;;;12.15;100.00;97076.84;4863139;29;19949;-73
2022/04/22 16:42:06;;;;;;;;;;;;;;;12.11;100.00;97070.56;4862341;29;19977;-73
2022/04/22 16:44:36;;;;;;;;;;;;;;;12.08;100.00;97070.66;4863529;29;19956;-73
2022/04/22 16:47:05;;;;;;;;;;;;;;;12.02;100.00;97076.00;4867308;29;19958;-73
2022/04/22 16:49:33;;;;;;;;;;;;;;;11.97;100.00;97082.13;4866462;29;19951;-73
2022/04/22 16:52:00;;;;;;;;;;;;;;;11.92;100.00;97081.84;4866080;29;19984;-73
2022/04/22 16:54:28;;;;;;;;;;;;;;;11.87;100.00;97085.94;4864509;29;20246;-73
2022/04/22 16:56:58;;;;;;;;;;;;;;;11.82;100.00;97089.25;4866284;29;19950;-72
2022/04/22 16:59:25;;;;;;;;;;;;;;;11.78;100.00;97089.38;4864945;29;19950;-73
2022/04/22 17:01:53;;;;;;;;;;;;;;;11.76;100.00;97088.22;4856459;29;19957;-72
2022/04/22 17:04:22;;;;;;;;;;;;;;;11.69;100.00;97088.34;4863018;29;19957;-71
2022/04/22 17:06:51;;;;;;;;;;;;;;;11.62;100.00;97086.47;4865508;29;19962;-71
2022/04/22 17:09:18;;;;;;;;;;;;;;;11.56;100.00;97085.44;4864509;29;19952;-71
2022/04/22 17:11:45;;;;;;;;;;;;;;;11.49;100.00;97091.16;4864511;29;19956;-72
2022/04/22 17:22:38;;;;;;;;;;;;;;;11.38;100.00;97095.41;4863481;29;19979;-72
2022/04/22 17:25:07;;;;;;;;;;;;;;;11.36;100.00;97100.66;4864419;29;20356;-72
2022/04/22 17:27:34;;;;;;;;;;;;;;;11.32;100.00;97099.97;4865729;29;19960;-69
2022/04/22 17:30:02;;;;;;;;;;;;;;;11.28;100.00;97100.03;4865907;29;19948;-71
2022/04/22 17:32:29;;;;;;;;;;;;;;;11.25;100.00;97102.91;4863145;29;19947;-72
2022/04/22 17:34:57;;;;;;;;;;;;;;;11.21;100.00;97097.38;4863996;29;19959;-73
2022/04/22 17:37:25;;;;;;;;;;;;;;;11.20;100.00;97099.38;4865273;29;19951;-70
2022/04/22 17:39:52;;;;;;;;;;;;;;;11.20;100.00;97104.19;4860922;29;19955;-72
2022/04/22 17:42:20;;;;;;;;;;;;;;;11.18;100.00;97106.63;4864202;29;19969;-72
2022/04/22 17:45:20;;;;;;;;;;;;;;;11.18;100.00;97101.03;4859068;29;19962;-72
2022/04/22 17:47:48;;;;;;;;;;;;;;;11.13;100.00;97101.53;4863402;29;19956;-72
2022/04/22 17:50:16;;;;;;;;;;;;;;;11.10;100.00;97103.19;4863317;29;19959;-72
2022/04/22 17:52:43;;;;;;;;;;;;;;;11.11;100.00;97101.19;4862609;29;19955;-71
2022/04/22 17:55:11;;;;;;;;;;;;;;;11.13;100.00;97110.72;4862539;29;19951;-71
2022/04/22 17:57:38;;;;;;;;;;;;;;;11.10;100.00;97103.19;4864447;29;19952;-72
2022/04/22 18:00:07;;;;;;;;;;;;;;;11.05;100.00;97114.88;4863299;29;19975;-72
2022/04/22 18:02:34;;;;;;;;;;;;;;;11.02;100.00;97110.16;4864202;29;19963;-73
2022/04/22 18:05:02;;;;;;;;;;;;;;;10.99;100.00;97107.41;4864913;29;19950;-73
2022/04/22 18:07:29;;;;;;;;;;;;;;;10.99;100.00;97113.00;4861421;29;20099;-74
2022/04/22 18:09:57;;;;;;;;;;;;;;;10.92;100.00;97108.34;4861149;29;19953;-73
2022/04/22 18:12:25;;;;;;;;;;;;;;;10.88;100.00;97115.22;4863580;29;20363;-73
2022/04/22 18:17:39;;;;;;;;;;;;;;;10.76;100.00;97127.81;4863082;29;19957;-73
2022/04/22 18:20:09;;;;;;;;;;;;;;;10.72;100.00;97118.72;4864790;29;20244;-74
2022/04/22 18:22:36;;;;;;;;;;;;;;;10.67;100.00;97115.63;4846681;29;19975;-73
2022/04/22 18:25:04;;;;;;;;;;;;;;;10.63;100.00;97118.50;4851971;29;19966;-72
2022/04/22 18:27:31;;;;;;;;;;;;;;;10.61;100.00;97123.72;4866040;29;19947;-72
2022/04/22 18:29:59;;;;;;;;;;;;;;;10.65;100.00;97126.44;4866575;29;19951;-72
2022/04/22 18:32:26;;;;;;;;;;;;;;;10.54;100.00;97137.78;4865307;29;19951;-73
2022/04/22 18:34:55;;;;;;;;;;;;;;;10.50;100.00;97134.28;4863998;29;19974;-72
2022/04/22 18:37:23;;;;;;;;;;;;;;;10.53;100.00;97137.03;4863646;29;20282;-73
2022/04/22 18:39:51;;;;;;;;;;;;;;;10.51;100.00;97142.22;4862319;29;19950;-72